createdAt,value
2019-04-20T00:00:29.418Z,45.73
2019-04-20T00:03:00.991Z,46.22
2019-04-20T00:05:30.910Z,46.22
2019-04-20T00:08:07.841Z,46.12
2019-04-20T00:10:44.739Z,46.26
2019-04-20T00:13:16.346Z,46.01
2019-04-20T00:15:36.753Z,46.18
2019-04-20T00:18:08.540Z,46.65
2019-04-20T00:20:40.794Z,46.34
2019-04-20T00:23:26.994Z,46.51
2019-04-20T00:26:19.438Z,46.79
2019-04-20T00:29:00.195Z,47.01
2019-04-20T00:31:29.776Z,46.67
2019-04-20T00:33:57.496Z,47.31
2019-04-20T00:36:18.043Z,47.23
2019-04-20T00:38:51.959Z,47.16
2019-04-20T00:41:21.258Z,47.26
2019-04-20T00:43:51.180Z,47.19
2019-04-20T00:46:30.447Z,47.22
2019-04-20T00:48:59.463Z,47.49
2019-04-20T00:51:41.910Z,47.96
2019-04-20T00:53:58.735Z,47.93
2019-04-20T00:56:27.380Z,48.38
2019-04-20T00:59:13.098Z,48.45
2019-04-20T01:01:50.244Z,48.19
2019-04-20T01:04:20.207Z,48.16
2019-04-20T01:06:55.083Z,48.87
2019-04-20T01:09:14.108Z,48.99
2019-04-20T01:11:47.888Z,49.42
2019-04-20T01:14:17.173Z,49.46
2019-04-20T01:16:54.961Z,49.36
2019-04-20T01:19:19.172Z,49.64
2019-04-20T01:21:57.877Z,49.92
2019-04-20T01:24:29.641Z,50.17
2019-04-20T01:26:55.914Z,50.66
2019-04-20T01:29:33.282Z,51.06
2019-04-20T01:32:13.804Z,51.16
2019-04-20T01:34:41.640Z,51.04
2019-04-20T01:37:14.496Z,51.57
2019-04-20T01:39:37.085Z,51.62
2019-04-20T01:42:02.384Z,51.52
2019-04-20T01:44:38.506Z,51.97
2019-04-20T01:47:06.578Z,51.83
2019-04-20T01:49:37.378Z,52.07
2019-04-20T01:52:16.419Z,52.13
2019-04-20T01:55:02.580Z,52.44
2019-04-20T01:57:45.841Z,52.82
2019-04-20T02:00:10.631Z,52.77
2019-04-20T02:02:53.874Z,53.09
2019-04-20T02:05:24.752Z,53.40
2019-04-20T02:07:53.910Z,53.31
2019-04-20T02:10:33.343Z,53.52
2019-04-20T02:12:59.410Z,53.08
2019-04-20T02:15:32.964Z,53.46
2019-04-20T02:18:10.338Z,53.81
2019-04-20T02:20:48.588Z,54.34
2019-04-20T02:23:15.901Z,54.00
2019-04-20T02:25:31.363Z,54.21
2019-04-20T02:28:17.553Z,54.04
2019-04-20T02:31:15.577Z,54.20
2019-04-20T02:33:55.655Z,53.26
2019-04-20T02:36:27.869Z,53.02
2019-04-20T02:44:15.973Z,53.62
2019-04-20T02:46:42.781Z,53.49
2019-04-20T02:49:26.126Z,53.10
2019-04-20T02:51:46.834Z,53.07
2019-04-20T02:56:48.098Z,53.82
2019-04-20T03:01:36.960Z,53.72
2019-04-20T03:03:54.844Z,53.35
2019-04-20T03:06:35.039Z,54.19
2019-04-20T03:09:17.509Z,53.99
2019-04-20T03:11:52.766Z,54.23
2019-04-20T03:14:14.913Z,54.14
2019-04-20T03:16:44.693Z,53.52
2019-04-20T03:19:17.107Z,53.71
2019-04-20T03:21:52.652Z,53.36
2019-04-20T03:26:56.899Z,53.80
2019-04-20T03:29:34.891Z,53.75
2019-04-20T03:35:00.575Z,54.28
2019-04-20T03:37:12.928Z,54.05
2019-04-20T03:39:39.001Z,54.11
2019-04-20T03:41:54.882Z,54.14
2019-04-20T03:44:26.382Z,54.21
2019-04-20T03:46:59.779Z,53.90
2019-04-20T03:49:48.207Z,54.03
2019-04-20T03:52:32.955Z,53.87
2019-04-20T03:54:54.353Z,53.93
2019-04-20T03:57:45.901Z,53.96
2019-04-20T04:00:34.290Z,53.71
2019-04-20T04:03:19.989Z,53.79
2019-04-20T04:05:42.028Z,54.02
2019-04-20T04:08:07.614Z,53.93
2019-04-20T04:10:44.299Z,53.25
2019-04-20T04:13:18.791Z,53.51
2019-04-20T04:15:55.709Z,53.45
2019-04-20T04:18:29.734Z,53.54
2019-04-20T04:21:00.101Z,53.55
2019-04-20T04:23:58.964Z,53.94
2019-04-20T04:26:18.709Z,53.66
2019-04-20T04:28:44.887Z,53.70
2019-04-20T04:31:17.657Z,53.85
2019-04-20T04:33:55.965Z,53.87
2019-04-20T04:36:17.820Z,54.14
2019-04-20T04:38:58.045Z,54.21
2019-04-20T04:41:26.582Z,53.75
2019-04-20T04:43:55.211Z,53.97
2019-04-20T04:46:10.220Z,54.12
2019-04-20T04:48:43.907Z,53.81
2019-04-20T04:51:20.003Z,53.96
2019-04-20T04:53:52.982Z,53.75
2019-04-20T04:56:18.377Z,53.75
2019-04-20T04:58:46.785Z,53.80
2019-04-20T05:01:22.354Z,54.06
2019-04-20T05:04:14.660Z,53.36
2019-04-20T05:06:33.016Z,53.39
2019-04-20T05:08:56.583Z,53.33
2019-04-20T05:11:23.805Z,53.09
2019-04-20T05:14:01.611Z,53.05
2019-04-20T05:16:46.022Z,52.78
2019-04-20T05:19:18.782Z,52.47
2019-04-20T05:21:57.425Z,52.15
2019-04-20T05:24:36.900Z,51.96
2019-04-20T05:27:29.015Z,51.66
2019-04-20T05:29:39.504Z,50.72
2019-04-20T05:32:14.793Z,50.65
2019-04-20T05:35:06.945Z,50.76
2019-04-20T05:37:45.765Z,50.29
2019-04-20T05:40:05.898Z,49.74
2019-04-20T05:42:41.198Z,49.74
2019-04-20T05:45:07.554Z,49.45
2019-04-20T05:47:39.977Z,48.64
2019-04-20T05:50:04.950Z,47.00
2019-04-20T05:52:50.896Z,45.40
2019-04-20T05:55:14.693Z,46.04
2019-04-20T05:57:50.768Z,47.54
2019-04-20T06:00:21.495Z,47.99
2019-04-20T06:02:49.859Z,47.67
2019-04-20T06:05:25.263Z,47.82
2019-04-20T06:07:55.066Z,47.93
2019-04-20T06:10:27.483Z,47.81
2019-04-20T06:12:55.538Z,47.79
2019-04-20T06:15:36.723Z,47.70
2019-04-20T06:18:02.765Z,47.15
2019-04-20T06:20:41.233Z,47.98
2019-04-20T06:23:33.256Z,47.96
2019-04-20T06:26:17.181Z,47.71
2019-04-20T06:28:27.978Z,47.77
2019-04-20T06:30:59.474Z,47.32
2019-04-20T06:36:47.159Z,47.18
2019-04-20T06:39:17.527Z,46.79
2019-04-20T06:42:00.159Z,47.01
2019-04-20T06:44:26.712Z,46.72
2019-04-20T06:46:53.731Z,46.63
2019-04-20T06:49:22.444Z,46.27
2019-04-20T06:51:52.801Z,46.55
2019-04-20T06:54:12.972Z,45.63
2019-04-20T06:56:54.057Z,45.76
2019-04-20T06:59:33.434Z,46.00
2019-04-20T07:02:03.907Z,45.53
2019-04-20T07:04:48.625Z,45.61
2019-04-20T07:07:18.501Z,45.26
2019-04-20T07:12:03.070Z,44.71
2019-04-20T07:14:27.526Z,44.51
2019-04-20T07:17:24.885Z,44.29
2019-04-20T07:19:40.191Z,44.19
2019-04-20T07:22:31.399Z,43.14
2019-04-20T07:24:57.385Z,43.94
2019-04-20T07:27:19.328Z,42.90
2019-04-20T07:30:00.555Z,43.03
2019-04-20T07:32:17.431Z,43.22
2019-04-20T07:34:56.840Z,42.97
2019-04-20T07:40:05.887Z,43.36
2019-04-20T07:42:34.623Z,43.52
2019-04-20T07:45:07.654Z,42.73
2019-04-20T07:47:40.590Z,42.55
2019-04-20T07:50:05.104Z,42.89
2019-04-20T07:52:31.895Z,42.20
2019-04-20T07:57:37.449Z,42.37
2019-04-20T08:00:13.419Z,42.38
2019-04-20T08:03:12.192Z,41.96
2019-04-20T08:05:36.989Z,41.84
2019-04-20T08:08:20.956Z,41.76
2019-04-20T08:10:39.494Z,41.13
2019-04-20T08:13:30.477Z,41.04
2019-04-20T08:15:58.788Z,40.40
2019-04-20T08:18:27.799Z,40.54
2019-04-20T08:20:57.638Z,40.92
2019-04-20T08:23:32.008Z,41.09
2019-04-20T08:25:49.436Z,40.80
2019-04-20T08:28:24.157Z,40.39
2019-04-20T08:31:06.332Z,40.76
2019-04-20T08:33:55.470Z,41.02
2019-04-20T08:36:17.067Z,40.44
2019-04-20T08:41:19.381Z,40.29
2019-04-20T08:44:06.426Z,39.66
2019-04-20T08:48:57.039Z,39.49
2019-04-20T08:51:25.952Z,40.26
2019-04-20T08:53:56.418Z,38.43
2019-04-20T08:56:21.982Z,37.94
2019-04-20T08:58:41.637Z,37.85
2019-04-20T09:01:20.205Z,38.52
2019-04-20T09:03:54.414Z,38.59
2019-04-20T09:06:32.311Z,38.46
2019-04-20T09:09:02.900Z,38.76
2019-04-20T09:11:44.757Z,37.67
2019-04-20T09:13:53.567Z,37.66
2019-04-20T09:16:26.896Z,38.37
2019-04-20T09:18:59.867Z,38.35
2019-04-20T09:21:37.943Z,41.29
2019-04-20T09:24:22.758Z,37.76
2019-04-20T09:26:47.545Z,38.43
2019-04-20T09:29:12.689Z,36.67
2019-04-20T09:31:44.367Z,36.32
2019-04-20T09:34:20.564Z,36.42
2019-04-20T09:36:51.406Z,36.75
2019-04-20T09:39:21.116Z,36.33
2019-04-20T09:42:01.545Z,36.93
2019-04-20T09:44:39.835Z,36.12
2019-04-20T09:47:05.028Z,35.77
2019-04-20T09:49:46.084Z,36.53
2019-04-20T09:52:23.677Z,36.23
2019-04-20T09:54:55.202Z,35.47
2019-04-20T09:57:29.661Z,35.67
2019-04-20T09:59:57.680Z,35.24
2019-04-20T10:02:19.898Z,36.58
2019-04-20T10:04:44.570Z,35.03
2019-04-20T10:07:19.609Z,35.30
2019-04-20T10:09:47.401Z,35.67
2019-04-20T10:12:19.653Z,38.16
2019-04-20T10:14:50.877Z,35.29
2019-04-20T10:17:20.890Z,34.92
2019-04-20T10:19:51.407Z,34.51
2019-04-20T10:22:22.556Z,35.85
2019-04-20T10:24:53.821Z,34.23
2019-04-20T10:27:24.371Z,35.23
2019-04-20T10:29:55.498Z,34.48
2019-04-20T10:32:34.153Z,35.97
2019-04-20T10:34:57.175Z,34.57
2019-04-20T10:37:29.368Z,35.14
2019-04-20T10:40:00.527Z,34.47
2019-04-20T10:42:30.556Z,34.73
2019-04-20T10:45:01.107Z,34.04
2019-04-20T10:47:32.762Z,34.52
2019-04-20T10:50:03.184Z,33.95
2019-04-20T10:52:33.970Z,34.17
2019-04-20T10:55:04.632Z,34.88
2019-04-20T10:57:35.392Z,33.88
2019-04-20T11:00:08.310Z,33.88
2019-04-20T11:02:39.282Z,33.69
2019-04-20T11:05:10.817Z,33.00
2019-04-20T11:07:41.026Z,34.21
2019-04-20T11:10:19.835Z,31.26
2019-04-20T11:12:42.764Z,33.11
2019-04-20T11:15:12.747Z,32.02
2019-04-20T11:17:43.552Z,33.02
2019-04-20T11:20:13.523Z,31.95
2019-04-20T11:22:44.318Z,31.01
2019-04-20T11:25:14.970Z,30.70
2019-04-20T11:27:45.930Z,30.89
2019-04-20T11:30:16.272Z,30.37
2019-04-20T11:32:46.277Z,31.46
2019-04-20T11:35:23.890Z,30.42
2019-04-20T11:37:49.157Z,29.43
2019-04-20T11:40:19.520Z,31.50
2019-04-20T11:42:50.002Z,31.80
2019-04-20T11:45:20.529Z,31.58
2019-04-20T11:47:51.574Z,29.73
2019-04-20T11:50:22.018Z,29.03
2019-04-20T11:52:52.990Z,29.57
2019-04-20T11:55:24.284Z,30.96
2019-04-20T11:57:54.233Z,28.30
2019-04-20T12:00:53.876Z,28.67
2019-04-20T12:03:26.017Z,27.75
2019-04-20T12:05:53.798Z,28.27
2019-04-20T12:08:22.854Z,26.78
2019-04-20T12:10:56.704Z,26.09
2019-04-20T12:13:24.827Z,26.39
2019-04-20T12:15:56.019Z,27.39
2019-04-20T12:18:27.484Z,27.71
2019-04-20T12:20:58.789Z,27.97
2019-04-20T13:22:28.774Z,26.50
2019-04-20T13:24:58.974Z,25.97
2019-04-20T13:27:29.182Z,25.42
2019-04-20T13:29:59.128Z,25.22
2019-04-20T13:32:29.766Z,25.36
2019-04-20T13:35:00.287Z,25.55
2019-04-20T13:37:31.650Z,25.61
2019-04-20T13:40:02.998Z,25.89
2019-04-20T13:42:33.504Z,25.88
2019-04-20T13:45:08.821Z,25.95
2019-04-20T13:47:39.064Z,25.89
2019-04-20T13:50:12.405Z,25.81
2019-04-20T13:52:41.107Z,25.73
2019-04-20T13:55:12.798Z,26.06
2019-04-20T13:57:44.300Z,26.14
2019-04-20T14:00:20.465Z,25.94
2019-04-20T14:03:08.995Z,26.09
2019-04-20T14:05:40.498Z,26.16
2019-04-20T14:08:11.650Z,25.69
2019-04-20T14:10:43.220Z,25.08
2019-04-20T14:13:16.785Z,24.53
2019-04-20T14:15:45.094Z,25.07
2019-04-20T14:18:15.269Z,25.54
2019-04-20T14:20:45.194Z,25.28
2019-04-20T14:23:15.040Z,24.80
2019-04-20T14:25:45.261Z,23.97
2019-04-20T14:28:15.477Z,23.29
2019-04-20T14:30:45.943Z,23.93
2019-04-20T14:33:16.895Z,23.72
2019-04-20T14:35:47.215Z,23.76
2019-04-20T14:38:17.935Z,23.81
2019-04-20T14:40:48.359Z,24.08
2019-04-20T14:43:19.385Z,23.88
2019-04-20T14:45:50.519Z,23.29
2019-04-20T14:48:20.741Z,23.77
2019-04-20T14:50:51.893Z,23.33
2019-04-20T14:53:23.133Z,23.13
2019-04-20T14:55:53.697Z,22.93
2019-04-20T14:58:42.184Z,23.30
2019-04-20T15:01:32.501Z,23.48
2019-04-20T15:04:09.507Z,23.07
2019-04-20T15:06:37.902Z,23.28
2019-04-20T15:09:08.927Z,23.60
2019-04-20T15:11:41.683Z,24.69
2019-04-20T15:14:11.043Z,24.81
2019-04-20T15:16:42.555Z,25.00
2019-04-20T15:19:13.602Z,25.70
2019-04-20T15:21:53.820Z,25.09
2019-04-20T15:24:23.824Z,25.73
2019-04-20T15:26:58.727Z,26.02
2019-04-20T15:29:28.664Z,26.19
2019-04-20T15:31:59.911Z,26.00
2019-04-20T15:34:30.895Z,26.24
2019-04-20T15:37:02.347Z,26.60
2019-04-20T15:39:32.940Z,26.79
2019-04-20T15:42:03.333Z,26.77
2019-04-20T15:44:33.493Z,27.22
2019-04-20T15:47:03.718Z,27.08
2019-04-20T15:49:33.803Z,26.92
2019-04-20T15:52:03.957Z,26.83
2019-04-20T15:54:34.077Z,26.96
2019-04-20T15:57:12.310Z,26.90
2019-04-20T15:59:35.534Z,27.19
2019-04-20T16:02:13.553Z,27.14
2019-04-20T16:05:00.718Z,27.31
2019-04-20T16:07:37.798Z,27.19
2019-04-20T16:10:03.336Z,27.62
2019-04-20T16:12:33.305Z,27.59
2019-04-20T16:15:03.951Z,27.76
2019-04-20T16:17:39.177Z,27.67
2019-04-20T16:20:12.605Z,27.88
2019-04-20T16:22:38.520Z,27.97
2019-04-20T16:25:17.274Z,27.78
2019-04-20T16:27:47.677Z,27.80
2019-04-20T16:30:19.867Z,27.99
2019-04-20T16:32:50.275Z,28.07
2019-04-20T16:35:20.390Z,28.18
2019-04-20T16:37:50.724Z,28.23
2019-04-20T16:40:21.002Z,28.15
2019-04-20T16:42:52.056Z,28.10
2019-04-20T16:45:23.194Z,28.17
2019-04-20T16:47:54.511Z,28.28
2019-04-20T16:50:24.750Z,28.44
2019-04-20T16:52:55.069Z,28.44
2019-04-20T16:55:25.204Z,30.20
2019-04-20T16:57:55.501Z,29.14
2019-04-20T17:00:27.407Z,29.04
2019-04-20T17:02:58.462Z,29.29
2019-04-20T17:05:29.233Z,29.41
2019-04-20T17:08:00.852Z,29.45
2019-04-20T17:10:30.839Z,29.39
2019-04-20T17:13:01.892Z,31.67
2019-04-20T17:15:31.872Z,31.01
2019-04-20T17:18:01.695Z,29.74
2019-04-20T17:20:32.732Z,30.15
2019-04-20T17:23:05.614Z,30.70
2019-04-20T17:25:34.473Z,30.03
2019-04-20T17:28:22.676Z,30.57
2019-04-20T17:31:01.057Z,30.97
2019-04-20T17:33:46.517Z,30.57
2019-04-20T17:36:14.443Z,30.69
2019-04-20T17:38:43.361Z,30.87
2019-04-20T17:41:23.688Z,29.59
2019-04-20T17:44:00.315Z,29.99
2019-04-20T17:46:24.827Z,30.44
2019-04-20T17:49:00.594Z,30.38
2019-04-20T17:51:36.171Z,30.39
2019-04-20T17:53:52.712Z,30.79
2019-04-20T17:56:17.893Z,30.22
2019-04-20T17:58:48.044Z,30.06
2019-04-20T18:01:48.910Z,30.28
2019-04-20T18:04:51.906Z,30.23
2019-04-20T18:07:04.358Z,30.63
2019-04-20T18:09:47.486Z,30.65
2019-04-20T18:11:59.663Z,30.81
2019-04-20T18:14:43.127Z,31.11
2019-04-20T18:17:17.753Z,31.12
2019-04-20T18:19:49.240Z,31.24
2019-04-20T18:22:19.728Z,31.22
2019-04-20T18:25:12.201Z,31.36
2019-04-20T18:27:45.516Z,31.35
2019-04-20T18:30:10.753Z,31.29
2019-04-20T18:32:29.745Z,31.29
2019-04-20T18:35:04.746Z,31.30
2019-04-20T18:37:34.369Z,31.43
2019-04-20T18:40:14.327Z,31.49
2019-04-20T18:42:45.285Z,31.80
2019-04-20T18:45:29.651Z,31.82
2019-04-20T18:48:06.560Z,31.72
2019-04-20T18:50:25.180Z,32.00
2019-04-20T18:52:51.644Z,32.02
2019-04-20T18:55:31.246Z,32.25
2019-04-20T18:57:55.060Z,32.22
2019-04-20T19:00:31.912Z,32.30
2019-04-20T19:03:06.480Z,32.51
2019-04-20T19:05:29.586Z,32.70
2019-04-20T19:08:04.397Z,32.73
2019-04-20T19:10:36.371Z,32.69
2019-04-20T19:13:07.976Z,32.89
2019-04-20T19:16:03.677Z,33.17
2019-04-20T19:18:54.853Z,33.12
2019-04-20T19:21:11.023Z,33.05
2019-04-20T19:23:51.607Z,33.33
2019-04-20T19:26:18.203Z,33.31
2019-04-20T19:28:50.015Z,33.43
2019-04-20T19:31:36.737Z,33.36
2019-04-20T19:34:09.747Z,33.29
2019-04-20T19:36:28.794Z,33.16
2019-04-20T19:39:06.080Z,33.28
2019-04-20T19:41:32.004Z,33.54
2019-04-20T19:44:07.023Z,33.42
2019-04-20T19:47:03.206Z,33.62
2019-04-20T19:49:07.960Z,33.91
2019-04-20T19:51:48.097Z,33.88
2019-04-20T19:54:24.292Z,33.79
2019-04-20T19:56:48.747Z,34.09
2019-04-20T19:59:11.009Z,34.01
2019-04-20T20:01:35.626Z,34.16
2019-04-20T20:04:09.268Z,34.30
2019-04-20T20:06:45.346Z,34.45
2019-04-20T20:09:12.731Z,34.66
2019-04-20T20:11:44.401Z,34.71
2019-04-20T20:14:16.989Z,34.96
2019-04-20T20:17:04.256Z,34.95
2019-04-20T20:19:32.355Z,34.70
2019-04-20T20:22:02.715Z,34.83
2019-04-20T20:24:19.661Z,34.45
2019-04-20T20:26:56.351Z,34.34
2019-04-20T20:29:33.458Z,34.25
2019-04-20T20:32:07.279Z,34.34
2019-04-20T20:34:32.599Z,34.25
2019-04-20T20:37:01.794Z,34.27
2019-04-20T20:39:32.607Z,34.32
2019-04-20T20:42:15.313Z,34.48
2019-04-20T20:44:41.191Z,34.17
2019-04-20T20:47:33.893Z,34.43
2019-04-20T20:50:03.238Z,34.27
2019-04-20T20:52:23.206Z,34.25
2019-04-20T20:54:49.484Z,34.04
2019-04-20T20:57:15.383Z,34.11
2019-04-20T20:59:51.354Z,34.23
2019-04-20T21:02:19.736Z,34.12
2019-04-20T21:04:45.598Z,33.83
2019-04-20T21:07:16.385Z,34.03
2019-04-20T21:09:46.419Z,33.73
2019-04-20T21:12:18.122Z,33.83
2019-04-20T21:14:49.026Z,34.04
2019-04-20T21:17:23.608Z,33.78
2019-04-20T21:20:06.296Z,33.65
2019-04-20T21:22:41.204Z,33.66
2019-04-20T21:24:56.811Z,33.56
2019-04-20T21:27:27.687Z,33.51
2019-04-20T21:29:59.981Z,33.72
2019-04-20T21:32:33.015Z,33.74
2019-04-20T21:35:05.275Z,33.41
2019-04-20T21:37:32.714Z,33.42
2019-04-20T21:40:14.043Z,33.67
2019-04-20T21:42:44.555Z,33.44
2019-04-20T21:45:16.873Z,33.44
2019-04-20T21:47:42.948Z,33.40
2019-04-20T21:50:33.542Z,33.73
2019-04-20T21:52:48.530Z,33.58
2019-04-20T21:55:16.244Z,33.51
2019-04-20T21:57:51.529Z,33.63
2019-04-20T22:00:42.255Z,33.62
2019-04-20T22:03:11.887Z,33.71
2019-04-20T22:05:42.333Z,33.71
2019-04-20T22:08:15.946Z,34.39
2019-04-20T22:10:44.945Z,33.47
2019-04-20T22:13:19.474Z,33.44
2019-04-20T22:15:55.461Z,33.38
2019-04-20T22:18:21.260Z,33.48
2019-04-20T22:21:02.340Z,33.58
2019-04-20T22:23:36.602Z,33.64
2019-04-20T22:26:04.142Z,33.73
2019-04-20T22:28:24.448Z,33.99
2019-04-20T22:30:55.763Z,33.78
2019-04-20T22:33:31.914Z,33.76
2019-04-20T22:36:03.857Z,33.88
2019-04-20T22:38:55.892Z,33.95
2019-04-20T22:41:24.107Z,33.97
2019-04-20T22:43:52.555Z,34.04
2019-04-20T22:46:24.749Z,34.30
2019-04-20T22:49:15.524Z,34.34
2019-04-20T22:51:39.953Z,34.38
2019-04-20T22:54:17.331Z,34.44
2019-04-20T22:56:43.484Z,34.56
2019-04-20T22:59:08.634Z,34.63
2019-04-20T23:01:40.807Z,34.65
2019-04-20T23:04:04.357Z,34.77
2019-04-20T23:06:38.628Z,34.83
2019-04-20T23:09:11.724Z,34.94
2019-04-20T23:11:42.279Z,34.85
2019-04-20T23:14:12.169Z,35.16
2019-04-20T23:16:47.372Z,35.20
2019-04-20T23:19:14.220Z,35.20
2019-04-20T23:21:48.576Z,35.26
2019-04-20T23:24:17.101Z,35.42
2019-04-20T23:26:47.631Z,35.53
2019-04-20T23:29:22.683Z,35.46
2019-04-20T23:31:55.675Z,35.72
2019-04-20T23:34:25.540Z,35.76
2019-04-20T23:36:53.002Z,35.85
2019-04-20T23:39:29.088Z,35.82
2019-04-20T23:41:59.787Z,35.84
2019-04-20T23:44:31.561Z,36.03
2019-04-20T23:47:11.147Z,36.17
2019-04-20T23:49:54.165Z,36.11
2019-04-20T23:52:32.434Z,36.17
2019-04-20T23:54:49.020Z,36.19
2019-04-20T23:57:13.564Z,36.36
2019-04-20T23:59:46.243Z,36.35
